createdAt,value
2022-12-29T00:01:57.031Z,11.17
2022-12-29T00:06:57.025Z,11.06
2022-12-29T00:11:56.895Z,11.10
2022-12-29T00:16:56.781Z,11.03
2022-12-29T00:21:56.928Z,11.14
2022-12-29T00:26:56.787Z,11.09
2022-12-29T00:31:56.666Z,11.02
2022-12-29T00:36:56.635Z,11.07
2022-12-29T00:41:56.549Z,11.27
2022-12-29T00:46:56.565Z,11.21
2022-12-29T00:51:56.429Z,11.17
2022-12-29T00:56:56.380Z,11.25
2022-12-29T01:01:56.361Z,11.15
2022-12-29T01:06:56.252Z,11.18
2022-12-29T01:11:56.195Z,11.42
2022-12-29T01:16:56.167Z,11.36
2022-12-29T01:21:56.070Z,11.32
2022-12-29T01:26:56.052Z,11.37
2022-12-29T01:31:56.027Z,11.62
2022-12-29T01:36:55.959Z,11.54
2022-12-29T01:41:55.851Z,11.67
2022-12-29T01:46:55.837Z,11.54
2022-12-29T01:51:55.770Z,11.61
2022-12-29T01:56:55.843Z,11.70
2022-12-29T02:01:55.715Z,11.64
2022-12-29T02:06:55.575Z,11.65
2022-12-29T02:11:55.479Z,11.79
2022-12-29T02:16:55.681Z,11.69
2022-12-29T02:21:55.410Z,11.79
2022-12-29T02:26:55.339Z,11.80
2022-12-29T02:31:55.448Z,11.65
2022-12-29T02:36:55.243Z,11.72
2022-12-29T02:41:55.172Z,11.95
2022-12-29T02:46:55.114Z,11.94
2022-12-29T02:51:55.114Z,11.98
2022-12-29T02:56:55.028Z,11.86
2022-12-29T03:01:55.284Z,12.01
2022-12-29T03:06:54.939Z,11.99
2022-12-29T03:11:54.833Z,12.07
2022-12-29T03:16:54.927Z,12.02
2022-12-29T03:21:54.757Z,11.88
2022-12-29T03:26:54.721Z,11.90
2022-12-29T03:31:58.057Z,11.96
2022-12-29T03:36:54.576Z,12.12
2022-12-29T03:41:54.639Z,12.17
2022-12-29T03:46:54.443Z,12.13
2022-12-29T03:51:54.499Z,12.10
2022-12-29T03:56:54.454Z,11.96
2022-12-29T04:01:54.364Z,11.79
2022-12-29T04:06:54.278Z,11.90
2022-12-29T04:12:03.071Z,11.96
2022-12-29T04:16:54.113Z,11.94
2022-12-29T04:21:54.042Z,11.98
2022-12-29T04:26:54.097Z,12.07
2022-12-29T04:31:54.013Z,12.16
2022-12-29T04:36:53.900Z,12.19
2022-12-29T04:41:53.858Z,12.24
2022-12-29T04:46:53.864Z,12.28
2022-12-29T04:51:53.712Z,12.24
2022-12-29T04:56:53.726Z,12.35
2022-12-29T05:01:53.699Z,12.42
2022-12-29T05:06:53.559Z,12.38
2022-12-29T05:11:53.531Z,12.47
2022-12-29T05:17:14.464Z,12.47
2022-12-29T05:21:53.398Z,12.53
2022-12-29T05:26:53.341Z,12.46
2022-12-29T05:31:53.462Z,12.42
2022-12-29T05:36:53.339Z,12.78
2022-12-29T05:41:53.288Z,12.79
2022-12-29T05:46:53.188Z,12.89
2022-12-29T05:51:53.082Z,12.75
2022-12-29T05:56:53.031Z,12.85
2022-12-29T06:01:53.129Z,12.49
2022-12-29T06:06:54.006Z,12.77
2022-12-29T06:11:52.826Z,12.72
2022-12-29T06:16:52.867Z,12.72
2022-12-29T06:21:52.881Z,12.70
2022-12-29T06:26:52.833Z,12.92
2022-12-29T06:31:52.695Z,12.74
2022-12-29T06:36:52.550Z,12.86
2022-12-29T06:41:52.531Z,12.56
2022-12-29T06:46:52.471Z,12.70
2022-12-29T06:51:52.433Z,12.62
2022-12-29T06:56:52.374Z,12.57
2022-12-29T07:01:52.562Z,12.59
2022-12-29T07:06:52.430Z,12.72
2022-12-29T07:11:52.184Z,12.64
2022-12-29T07:16:52.165Z,12.53
2022-12-29T07:21:52.155Z,12.37
2022-12-29T07:26:52.179Z,12.49
2022-12-29T07:31:52.309Z,12.49
2022-12-29T07:36:52.137Z,12.37
2022-12-29T07:41:52.206Z,12.34
2022-12-29T07:46:56.278Z,12.24
2022-12-29T07:51:53.101Z,12.41
2022-12-29T07:56:52.000Z,12.57
2022-12-29T08:01:51.954Z,12.47
2022-12-29T08:06:51.754Z,12.27
2022-12-29T08:11:51.765Z,12.32
2022-12-29T08:16:51.633Z,12.20
2022-12-29T08:21:51.456Z,12.47
2022-12-29T08:26:51.374Z,12.24
2022-12-29T08:31:51.281Z,12.39
2022-12-29T08:36:51.398Z,12.45
2022-12-29T08:41:51.443Z,12.39
2022-12-29T08:46:51.205Z,12.49
2022-12-29T08:51:51.248Z,12.29
2022-12-29T08:56:51.497Z,11.67
2022-12-29T09:01:53.206Z,11.49
2022-12-29T09:06:51.165Z,11.46
2022-12-29T09:11:51.118Z,11.47
2022-12-29T09:16:53.463Z,11.47
2022-12-29T09:21:50.856Z,11.46
2022-12-29T09:26:50.796Z,11.39
2022-12-29T09:31:50.787Z,11.40
2022-12-29T09:36:50.634Z,11.73
2022-12-29T09:41:50.568Z,11.75
2022-12-29T09:46:50.685Z,11.62
2022-12-29T09:51:50.494Z,11.85
2022-12-29T09:56:50.727Z,11.90
2022-12-29T10:01:50.531Z,11.98
2022-12-29T10:07:19.339Z,12.07
2022-12-29T10:13:02.544Z,12.29
2022-12-29T10:18:02.539Z,12.45
2022-12-29T10:23:02.484Z,12.39
2022-12-29T10:28:02.445Z,12.45
2022-12-29T10:33:02.400Z,12.56
2022-12-29T10:38:02.320Z,12.68
2022-12-29T10:43:02.247Z,12.52
2022-12-29T10:48:02.337Z,12.68
2022-12-29T10:53:02.244Z,12.68
2022-12-29T10:58:02.045Z,12.52
2022-12-29T11:03:02.366Z,12.62
2022-12-29T11:08:02.035Z,12.50
2022-12-29T11:13:01.956Z,12.71
2022-12-29T11:18:01.950Z,12.56
2022-12-29T11:23:01.972Z,12.39
2022-12-29T11:28:01.749Z,12.38
2022-12-29T11:33:01.781Z,12.46
2022-12-29T11:38:01.651Z,12.46
2022-12-29T11:43:01.599Z,12.32
2022-12-29T11:48:01.597Z,12.28
2022-12-29T11:53:01.512Z,12.34
2022-12-29T11:58:01.472Z,12.32
2022-12-29T12:03:01.630Z,12.42
2022-12-29T12:08:01.420Z,12.50
2022-12-29T12:13:01.388Z,12.42
2022-12-29T12:18:01.477Z,12.35
2022-12-29T12:23:02.143Z,12.38
2022-12-29T12:28:23.206Z,12.24
2022-12-29T12:33:01.129Z,12.31
2022-12-29T12:38:01.395Z,12.29
2022-12-29T12:43:10.992Z,12.38
2022-12-29T12:48:00.983Z,12.23
2022-12-29T12:53:01.937Z,12.39
2022-12-29T12:58:00.786Z,12.24
2022-12-29T13:03:00.909Z,12.20
2022-12-29T13:08:04.105Z,12.27
2022-12-29T13:13:00.677Z,12.20
2022-12-29T13:18:00.567Z,12.19
2022-12-29T13:23:00.514Z,12.29
2022-12-29T13:28:00.526Z,12.09
2022-12-29T13:33:02.516Z,12.12
2022-12-29T13:38:02.379Z,12.28
2022-12-29T13:43:01.363Z,12.20
2022-12-29T13:48:00.287Z,12.20
2022-12-29T13:53:00.175Z,12.10
2022-12-29T13:58:00.104Z,12.07
2022-12-29T14:03:00.289Z,11.95
2022-12-29T14:08:00.001Z,12.05
2022-12-29T14:12:59.969Z,12.09
2022-12-29T14:18:00.998Z,12.04
2022-12-29T14:22:59.933Z,12.10
2022-12-29T14:27:59.803Z,12.12
2022-12-29T14:32:59.783Z,12.05
2022-12-29T14:38:00.745Z,11.94
2022-12-29T14:42:59.657Z,12.04
2022-12-29T14:47:59.603Z,12.05
2022-12-29T14:53:03.788Z,11.83
2022-12-29T14:57:59.486Z,11.90
2022-12-29T15:02:59.500Z,12.02
2022-12-29T15:07:59.364Z,11.82
2022-12-29T15:12:59.320Z,11.78
2022-12-29T15:17:59.395Z,11.65
2022-12-29T15:22:59.303Z,11.51
2022-12-29T15:27:59.187Z,11.62
2022-12-29T15:32:59.135Z,11.80
2022-12-29T15:37:59.050Z,11.73
2022-12-29T15:42:59.000Z,11.75
2022-12-29T15:47:58.929Z,11.58
2022-12-29T15:52:58.907Z,11.67
2022-12-29T15:57:58.941Z,11.43
2022-12-29T16:02:58.875Z,11.37
2022-12-29T16:07:58.875Z,11.42
2022-12-29T16:12:58.667Z,11.29
2022-12-29T16:17:58.607Z,11.10
2022-12-29T16:22:58.605Z,11.32
2022-12-29T16:27:58.547Z,11.39
2022-12-29T16:32:58.454Z,11.21
2022-12-29T16:37:58.393Z,10.99
2022-12-29T16:42:58.367Z,11.17
2022-12-29T16:47:58.324Z,11.02
2022-12-29T16:52:58.255Z,11.00
2022-12-29T16:57:58.347Z,10.96
2022-12-29T17:02:58.221Z,11.02
2022-12-29T17:07:58.075Z,11.04
2022-12-29T17:12:58.021Z,10.82
2022-12-29T17:17:58.009Z,11.09
2022-12-29T17:22:57.911Z,11.07
2022-12-29T17:27:57.888Z,10.94
2022-12-29T17:32:57.809Z,11.00
2022-12-29T17:37:57.870Z,10.78
2022-12-29T17:43:02.161Z,10.86
2022-12-29T17:47:57.675Z,10.64
2022-12-29T17:53:01.076Z,10.42
2022-12-29T17:57:57.575Z,10.38
2022-12-29T18:02:57.665Z,10.23
2022-12-29T18:07:57.533Z,9.90
2022-12-29T18:12:57.376Z,9.58
2022-12-29T18:17:57.317Z,9.56
2022-12-29T18:22:57.422Z,9.28
2022-12-29T18:27:57.336Z,9.05
2022-12-29T18:32:57.276Z,8.99
2022-12-29T18:37:57.211Z,8.98
2022-12-29T18:42:57.051Z,8.86
2022-12-29T18:47:56.991Z,8.79
2022-12-29T18:53:03.393Z,8.59
2022-12-29T18:57:58.003Z,8.59
2022-12-29T19:02:56.998Z,8.65
2022-12-29T19:07:56.879Z,8.56
2022-12-29T19:12:56.777Z,8.74
2022-12-29T19:18:41.115Z,8.74
2022-12-29T19:22:57.595Z,8.61
2022-12-29T19:27:56.605Z,8.77
2022-12-29T19:32:56.589Z,8.74
2022-12-29T19:37:56.498Z,8.79
2022-12-29T19:42:56.475Z,8.71
2022-12-29T19:47:56.402Z,8.70
2022-12-29T19:53:04.872Z,8.73
2022-12-29T19:57:57.208Z,8.62
2022-12-29T20:02:56.420Z,8.63
2022-12-29T20:07:56.099Z,8.61
2022-12-29T20:12:56.161Z,8.58
2022-12-29T20:18:13.613Z,8.58
2022-12-29T20:22:56.918Z,8.45
2022-12-29T20:27:55.900Z,8.47
2022-12-29T20:32:55.825Z,8.56
2022-12-29T20:37:55.739Z,8.41
2022-12-29T20:42:55.704Z,8.52
2022-12-29T20:47:55.670Z,8.48
2022-12-29T20:52:55.605Z,8.58
2022-12-29T20:58:23.154Z,8.59
2022-12-29T21:02:56.618Z,8.63
2022-12-29T21:07:55.419Z,8.58
2022-12-29T21:12:55.461Z,8.53
2022-12-29T21:17:55.327Z,8.52
2022-12-29T21:22:55.323Z,8.47
2022-12-29T21:27:55.314Z,8.45
2022-12-29T21:32:55.140Z,8.53
2022-12-29T21:37:55.117Z,8.40
2022-12-29T21:42:55.056Z,8.23
2022-12-29T21:47:55.006Z,8.37
2022-12-29T21:52:54.913Z,8.38
2022-12-29T21:57:54.953Z,8.29
2022-12-29T22:02:55.028Z,8.36
2022-12-29T22:07:54.911Z,8.36
2022-12-29T22:14:27.355Z,8.23
2022-12-29T22:19:27.254Z,8.15
2022-12-29T22:24:27.263Z,8.12
2022-12-29T22:29:27.206Z,8.25
2022-12-29T22:34:27.154Z,8.20
2022-12-29T22:39:27.081Z,8.15
2022-12-29T22:44:27.037Z,8.19
2022-12-29T22:49:27.013Z,8.25
2022-12-29T22:54:26.908Z,8.15
2022-12-29T22:59:26.885Z,8.08
2022-12-29T23:05:01.722Z,7.97
2022-12-29T23:09:27.805Z,7.97
2022-12-29T23:14:26.789Z,7.86
2022-12-29T23:19:26.731Z,7.89
2022-12-29T23:24:26.599Z,8.05
2022-12-29T23:29:26.528Z,7.92
2022-12-29T23:34:26.458Z,7.95
2022-12-29T23:39:26.451Z,7.75
2022-12-29T23:44:26.509Z,7.75
2022-12-29T23:49:26.373Z,7.83
2022-12-29T23:54:26.275Z,7.69
2022-12-29T23:59:26.243Z,7.74
